createdAt,value
2018-02-23T00:00:25.825Z,1018.31
2018-02-23T00:01:25.837Z,1018.30
2018-02-23T00:02:25.837Z,1018.28
2018-02-23T00:03:25.845Z,1018.24
2018-02-23T00:04:25.856Z,1018.27
2018-02-23T00:05:25.864Z,1018.26
2018-02-23T00:06:25.877Z,1018.25
2018-02-23T00:07:25.883Z,1018.24
2018-02-23T00:08:25.894Z,1018.28
2018-02-23T00:09:25.902Z,1018.29
2018-02-23T00:10:25.912Z,1018.26
2018-02-23T00:11:25.922Z,1018.24
2018-02-23T00:12:25.937Z,1018.25
2018-02-23T00:13:25.939Z,1018.30
2018-02-23T00:14:25.950Z,1018.28
2018-02-23T00:15:25.963Z,1018.27
2018-02-23T00:16:25.976Z,1018.23
2018-02-23T00:17:25.977Z,1018.24
2018-02-23T00:18:25.989Z,1018.22
2018-02-23T00:19:26.003Z,1018.26
2018-02-23T00:20:26.113Z,1018.24
2018-02-23T00:21:26.024Z,1018.30
2018-02-23T00:22:26.028Z,1018.29
2018-02-23T00:23:26.038Z,1018.27
2018-02-23T00:24:26.046Z,1018.25
2018-02-23T00:25:26.058Z,1018.24
2018-02-23T00:26:26.086Z,1018.24
2018-02-23T00:27:26.077Z,1018.22
2018-02-23T00:28:26.083Z,1018.23
2018-02-23T00:29:26.093Z,1018.19
2018-02-23T00:30:26.104Z,1018.23
2018-02-23T00:31:26.113Z,1018.20
2018-02-23T00:32:26.127Z,1018.19
2018-02-23T00:33:26.134Z,1018.19
2018-02-23T00:34:26.146Z,1018.20
2018-02-23T00:35:26.151Z,1018.18
2018-02-23T00:36:26.160Z,1018.21
2018-02-23T00:37:26.198Z,1018.14
2018-02-23T00:38:26.180Z,1018.24
2018-02-23T00:39:26.191Z,1018.23
2018-02-23T00:40:26.221Z,1018.22
2018-02-23T00:41:26.207Z,1018.25
2018-02-23T00:42:26.218Z,1018.25
2018-02-23T00:43:26.228Z,1018.23
2018-02-23T00:44:26.238Z,1018.24
2018-02-23T00:45:26.249Z,1018.25
2018-02-23T00:46:26.257Z,1018.23
2018-02-23T00:47:26.268Z,1018.25
2018-02-23T00:48:26.276Z,1018.21
2018-02-23T00:49:26.285Z,1018.24
2018-02-23T00:50:26.294Z,1018.23
2018-02-23T00:51:26.307Z,1018.26
2018-02-23T00:52:26.317Z,1018.21
2018-02-23T00:53:26.326Z,1018.15
2018-02-23T00:54:26.334Z,1018.20
2018-02-23T00:55:26.358Z,1018.20
2018-02-23T00:56:26.361Z,1018.23
2018-02-23T00:57:26.365Z,1018.25
2018-02-23T00:58:26.377Z,1018.23
2018-02-23T00:59:26.383Z,1018.21
2018-02-23T01:00:26.391Z,1018.22
2018-02-23T01:01:26.414Z,1018.19
2018-02-23T01:02:26.410Z,1018.20
2018-02-23T01:03:26.421Z,1018.21
2018-02-23T01:04:26.436Z,1018.24
2018-02-23T01:05:26.478Z,1018.21
2018-02-23T01:06:26.450Z,1018.24
2018-02-23T01:07:26.458Z,1018.27
2018-02-23T01:08:26.469Z,1018.24
2018-02-23T01:09:26.478Z,1018.24
2018-02-23T01:10:26.492Z,1018.26
2018-02-23T01:11:26.498Z,1018.25
2018-02-23T01:12:26.507Z,1018.22
2018-02-23T01:13:26.514Z,1018.24
2018-02-23T01:14:26.525Z,1018.23
2018-02-23T01:15:26.535Z,1018.22
2018-02-23T01:16:26.549Z,1018.22
2018-02-23T01:17:26.554Z,1018.22
2018-02-23T01:18:26.564Z,1018.24
2018-02-23T01:19:26.574Z,1018.26
2018-02-23T01:20:26.583Z,1018.18
2018-02-23T01:21:26.597Z,1018.22
2018-02-23T01:22:26.603Z,1018.18
2018-02-23T01:23:26.618Z,1018.21
2018-02-23T01:24:26.621Z,1018.20
2018-02-23T01:25:26.630Z,1018.18
2018-02-23T01:26:26.644Z,1018.19
2018-02-23T01:27:26.655Z,1018.19
2018-02-23T01:28:26.660Z,1018.20
2018-02-23T01:29:26.668Z,1018.15
2018-02-23T01:30:26.684Z,1018.20
2018-02-23T01:31:26.687Z,1018.20
2018-02-23T01:32:26.700Z,1018.18
2018-02-23T01:33:26.708Z,1018.15
2018-02-23T01:34:26.716Z,1018.15
2018-02-23T01:35:26.729Z,1018.10
2018-02-23T01:36:26.739Z,1018.09
2018-02-23T01:37:26.746Z,1018.10
2018-02-23T01:38:26.755Z,1018.12
2018-02-23T01:39:26.766Z,1018.09
2018-02-23T01:40:26.777Z,1018.06
2018-02-23T01:41:26.785Z,1018.06
2018-02-23T01:42:26.796Z,1018.04
2018-02-23T01:43:26.804Z,1017.98
2018-02-23T01:44:26.913Z,1018.05
2018-02-23T01:45:26.827Z,1018.02
2018-02-23T01:46:26.834Z,1018.02
2018-02-23T01:47:26.895Z,1018.04
2018-02-23T01:48:26.851Z,1018.07
2018-02-23T01:49:26.862Z,1018.03
2018-02-23T01:50:26.872Z,1017.98
2018-02-23T01:51:26.880Z,1017.98
2018-02-23T01:52:26.891Z,1017.99
2018-02-23T01:53:26.905Z,1018.00
2018-02-23T01:54:26.908Z,1018.02
2018-02-23T01:55:26.920Z,1018.01
2018-02-23T01:56:26.932Z,1017.99
2018-02-23T01:57:26.940Z,1017.97
2018-02-23T01:58:26.949Z,1017.96
2018-02-23T01:59:26.957Z,1017.95
2018-02-23T02:00:26.968Z,1017.92
2018-02-23T02:01:26.982Z,1017.90
2018-02-23T02:02:26.986Z,1017.87
2018-02-23T02:03:26.997Z,1017.86
2018-02-23T02:04:27.005Z,1017.86
2018-02-23T02:05:27.015Z,1017.89
2018-02-23T02:06:27.025Z,1017.86
2018-02-23T02:07:27.037Z,1017.82
2018-02-23T02:08:27.044Z,1017.83
2018-02-23T02:09:27.056Z,1017.74
2018-02-23T02:10:27.063Z,1017.79
2018-02-23T02:11:27.075Z,1017.76
2018-02-23T02:12:27.085Z,1017.77
2018-02-23T02:13:27.092Z,1017.75
2018-02-23T02:14:27.106Z,1017.78
2018-02-23T02:15:27.112Z,1017.75
2018-02-23T02:16:27.125Z,1017.77
2018-02-23T02:17:27.131Z,1017.75
2018-02-23T02:18:27.140Z,1017.74
2018-02-23T02:19:27.155Z,1017.74
2018-02-23T02:20:27.167Z,1017.71
2018-02-23T02:21:27.169Z,1017.73
2018-02-23T02:22:27.180Z,1017.75
2018-02-23T02:23:27.192Z,1017.70
2018-02-23T02:24:27.199Z,1017.73
2018-02-23T02:25:27.213Z,1017.72
2018-02-23T02:26:27.222Z,1017.70
2018-02-23T02:27:27.227Z,1017.70
2018-02-23T02:28:27.238Z,1017.68
2018-02-23T02:29:27.250Z,1017.66
2018-02-23T02:30:27.255Z,1017.67
2018-02-23T02:31:27.266Z,1017.64
2018-02-23T02:32:27.276Z,1017.65
2018-02-23T02:33:27.290Z,1017.64
2018-02-23T02:34:27.301Z,1017.60
2018-02-23T02:35:27.310Z,1017.62
2018-02-23T02:36:27.315Z,1017.62
2018-02-23T02:37:27.354Z,1017.59
2018-02-23T02:38:27.340Z,1017.66
2018-02-23T02:39:27.355Z,1017.62
2018-02-23T02:40:27.363Z,1017.60
2018-02-23T02:41:27.361Z,1017.62
2018-02-23T02:42:27.376Z,1017.62
2018-02-23T02:43:27.382Z,1017.61
2018-02-23T02:44:27.397Z,1017.66
2018-02-23T02:45:27.399Z,1017.67
2018-02-23T02:46:27.412Z,1017.73
2018-02-23T02:47:27.420Z,1017.69
2018-02-23T02:48:27.502Z,1017.64
2018-02-23T02:49:27.438Z,1017.67
2018-02-23T02:50:27.448Z,1017.68
2018-02-23T02:51:27.459Z,1017.68
2018-02-23T02:52:27.468Z,1017.72
2018-02-23T02:53:27.476Z,1017.70
2018-02-23T02:54:27.488Z,1017.69
2018-02-23T02:55:27.510Z,1017.65
2018-02-23T02:56:27.507Z,1017.66
2018-02-23T02:57:27.515Z,1017.67
2018-02-23T02:58:27.527Z,1017.70
2018-02-23T02:59:27.535Z,1017.69
2018-02-23T03:00:27.543Z,1017.66
2018-02-23T03:01:27.553Z,1017.68
2018-02-23T03:02:27.566Z,1017.64
2018-02-23T03:03:27.572Z,1017.64
2018-02-23T03:04:27.584Z,1017.60
2018-02-23T03:05:27.593Z,1017.63
2018-02-23T03:06:27.603Z,1017.56
2018-02-23T03:07:27.615Z,1017.60
2018-02-23T03:08:27.632Z,1017.57
2018-02-23T03:09:27.629Z,1017.57
2018-02-23T03:10:27.638Z,1017.53
2018-02-23T03:11:27.655Z,1017.57
2018-02-23T03:12:27.658Z,1017.53
2018-02-23T03:13:27.732Z,1017.55
2018-02-23T03:14:27.679Z,1017.58
2018-02-23T03:15:27.691Z,1017.57
2018-02-23T03:16:27.696Z,1017.55
2018-02-23T03:17:27.706Z,1017.54
2018-02-23T03:18:27.714Z,1017.57
2018-02-23T03:19:27.726Z,1017.56
2018-02-23T03:20:27.742Z,1017.60
2018-02-23T03:21:27.748Z,1017.55
2018-02-23T03:22:27.763Z,1017.54
2018-02-23T03:23:27.766Z,1017.55
2018-02-23T03:24:27.774Z,1017.63
2018-02-23T03:25:27.783Z,1017.65
2018-02-23T03:26:27.791Z,1017.64
2018-02-23T03:27:27.806Z,1017.69
2018-02-23T03:28:27.816Z,1017.69
2018-02-23T03:29:27.821Z,1017.68
2018-02-23T03:30:27.835Z,1017.72
2018-02-23T03:31:27.841Z,1017.74
2018-02-23T03:32:27.850Z,1017.69
2018-02-23T03:33:27.865Z,1017.72
2018-02-23T03:34:27.906Z,1017.67
2018-02-23T03:35:27.879Z,1017.68
2018-02-23T03:36:27.891Z,1017.66
2018-02-23T03:37:27.894Z,1017.69
2018-02-23T03:38:27.907Z,1017.67
2018-02-23T03:39:27.913Z,1017.65
2018-02-23T03:40:27.930Z,1017.69
2018-02-23T03:41:27.932Z,1017.71
2018-02-23T03:42:27.944Z,1017.69
2018-02-23T03:43:28.052Z,1017.65
2018-02-23T03:44:27.965Z,1017.67
2018-02-23T03:45:27.973Z,1017.67
2018-02-23T03:46:27.996Z,1017.67
2018-02-23T03:47:27.992Z,1017.65
2018-02-23T03:48:28.013Z,1017.69
2018-02-23T03:49:28.012Z,1017.64
2018-02-23T03:50:28.018Z,1017.64
2018-02-23T03:51:28.028Z,1017.68
2018-02-23T03:52:28.037Z,1017.62
2018-02-23T03:53:28.054Z,1017.63
2018-02-23T03:54:28.058Z,1017.62
2018-02-23T03:55:28.064Z,1017.62
2018-02-23T03:56:28.073Z,1017.61
2018-02-23T03:57:28.089Z,1017.63
2018-02-23T03:58:28.092Z,1017.60
2018-02-23T03:59:28.201Z,1017.60
2018-02-23T04:00:28.110Z,1017.60
2018-02-23T04:01:28.122Z,1017.62
2018-02-23T04:02:28.131Z,1017.62
2018-02-23T04:03:28.138Z,1017.59
2018-02-23T04:04:28.152Z,1017.60
2018-02-23T04:05:28.156Z,1017.59
2018-02-23T04:06:28.169Z,1017.61
2018-02-23T04:07:28.177Z,1017.61
2018-02-23T04:08:28.192Z,1017.61
2018-02-23T04:09:28.193Z,1017.61
2018-02-23T04:10:28.205Z,1017.56
2018-02-23T04:11:28.218Z,1017.59
2018-02-23T04:12:28.224Z,1017.62
2018-02-23T04:13:28.231Z,1017.54
2018-02-23T04:14:28.239Z,1017.54
2018-02-23T04:15:28.275Z,1017.53
2018-02-23T04:16:28.260Z,1017.53
2018-02-23T04:17:28.277Z,1017.57
2018-02-23T04:18:28.274Z,1017.64
2018-02-23T04:19:28.287Z,1017.64
2018-02-23T04:20:28.296Z,1017.63
2018-02-23T04:21:28.303Z,1017.69
2018-02-23T04:22:28.312Z,1017.68
2018-02-23T04:23:28.326Z,1017.71
2018-02-23T04:24:28.333Z,1017.68
2018-02-23T04:25:28.345Z,1017.66
2018-02-23T04:26:28.354Z,1017.63
2018-02-23T04:27:28.366Z,1017.65
2018-02-23T04:28:28.366Z,1017.70
2018-02-23T04:29:28.378Z,1017.68
2018-02-23T04:30:28.397Z,1017.66
2018-02-23T04:31:28.394Z,1017.72
2018-02-23T04:32:28.405Z,1017.69
2018-02-23T04:33:28.411Z,1017.75
2018-02-23T04:34:28.424Z,1017.76
2018-02-23T04:35:28.430Z,1017.71
2018-02-23T04:36:28.446Z,1017.73
2018-02-23T04:37:28.448Z,1017.79
2018-02-23T04:38:28.460Z,1017.78
2018-02-23T04:39:28.469Z,1017.76
2018-02-23T04:40:28.476Z,1017.75
2018-02-23T04:41:28.493Z,1017.79
2018-02-23T04:42:28.497Z,1017.74
2018-02-23T04:43:28.504Z,1017.82
2018-02-23T04:44:28.522Z,1017.83
2018-02-23T04:45:28.523Z,1017.81
2018-02-23T04:46:28.535Z,1017.79
2018-02-23T04:47:28.541Z,1017.80
2018-02-23T04:48:28.551Z,1017.81
2018-02-23T04:49:28.555Z,1017.76
2018-02-23T04:50:28.590Z,1017.83
2018-02-23T04:51:28.589Z,1017.82
2018-02-23T04:52:28.592Z,1017.78
2018-02-23T04:53:28.596Z,1017.79
2018-02-23T04:54:28.604Z,1017.76
2018-02-23T04:55:28.628Z,1017.81
2018-02-23T04:56:28.643Z,1017.83
2018-02-23T04:57:28.631Z,1017.81
2018-02-23T04:58:28.638Z,1017.80
2018-02-23T04:59:28.646Z,1017.81
2018-02-23T05:00:28.655Z,1017.76
2018-02-23T05:01:28.664Z,1017.77
2018-02-23T05:02:28.733Z,1017.79
2018-02-23T05:03:28.684Z,1017.80
2018-02-23T05:04:28.692Z,1017.76
2018-02-23T05:05:28.703Z,1017.80
2018-02-23T05:06:28.723Z,1017.83
2018-02-23T05:07:28.721Z,1017.81
2018-02-23T05:08:28.730Z,1017.78
2018-02-23T05:09:28.737Z,1017.82
2018-02-23T05:10:28.751Z,1017.79
2018-02-23T05:11:28.759Z,1017.79
2018-02-23T05:12:28.771Z,1017.80
2018-02-23T05:13:28.774Z,1017.80
2018-02-23T05:14:28.783Z,1017.81
2018-02-23T05:15:28.798Z,1017.78
2018-02-23T05:16:28.806Z,1017.78
2018-02-23T05:17:28.813Z,1017.79
2018-02-23T05:18:28.817Z,1017.81
2018-02-23T05:19:28.829Z,1017.84
2018-02-23T05:20:28.835Z,1017.82
2018-02-23T05:21:28.854Z,1017.81
2018-02-23T05:22:28.876Z,1017.81
2018-02-23T05:23:28.861Z,1017.83
2018-02-23T05:24:28.881Z,1017.82
2018-02-23T05:25:28.883Z,1017.83
2018-02-23T05:26:28.888Z,1017.80
2018-02-23T05:27:28.903Z,1017.82
2018-02-23T05:28:28.913Z,1017.84
2018-02-23T05:29:28.919Z,1017.84
2018-02-23T05:30:28.928Z,1017.78
2018-02-23T05:31:28.938Z,1017.76
2018-02-23T05:32:28.941Z,1017.82
2018-02-23T05:33:28.947Z,1017.81
2018-02-23T05:34:28.957Z,1017.83
2018-02-23T05:35:28.968Z,1017.85
2018-02-23T05:36:29.076Z,1017.86
2018-02-23T05:37:28.984Z,1017.89
2018-02-23T05:38:28.997Z,1017.85
2018-02-23T05:39:29.003Z,1017.86
2018-02-23T05:40:29.016Z,1017.88
2018-02-23T05:41:29.018Z,1017.86
2018-02-23T05:42:29.026Z,1017.82
2018-02-23T05:43:29.037Z,1017.86
2018-02-23T05:44:29.049Z,1017.86
2018-02-23T05:45:29.051Z,1017.85
2018-02-23T05:46:29.064Z,1017.91
2018-02-23T05:47:29.073Z,1017.86
2018-02-23T05:48:29.083Z,1017.87
2018-02-23T05:49:29.090Z,1017.87
2018-02-23T05:50:29.097Z,1017.90
2018-02-23T05:51:29.124Z,1017.86
2018-02-23T05:52:29.139Z,1017.89
2018-02-23T05:53:29.125Z,1017.94
2018-02-23T05:54:29.130Z,1017.93
2018-02-23T05:55:29.139Z,1017.90
2018-02-23T05:56:29.197Z,1017.91
2018-02-23T05:57:29.158Z,1017.85
2018-02-23T05:58:29.169Z,1017.92
2018-02-23T05:59:29.178Z,1017.90
2018-02-23T06:00:29.194Z,1017.92
2018-02-23T06:01:29.196Z,1017.96
2018-02-23T06:02:29.222Z,1017.94
2018-02-23T06:03:29.234Z,1017.95
2018-02-23T06:04:29.220Z,1018.01
2018-02-23T06:05:29.249Z,1017.98
2018-02-23T06:06:29.241Z,1017.98
2018-02-23T06:07:29.250Z,1017.99
2018-02-23T06:08:29.254Z,1018.00
2018-02-23T06:09:29.269Z,1018.04
2018-02-23T06:10:29.277Z,1018.03
2018-02-23T06:11:29.280Z,1018.01
2018-02-23T06:12:29.291Z,1018.08
2018-02-23T06:13:29.299Z,1018.08
2018-02-23T06:14:29.346Z,1018.07
2018-02-23T06:15:29.319Z,1018.11
2018-02-23T06:16:29.339Z,1018.11
2018-02-23T06:17:29.357Z,1018.09
2018-02-23T06:18:29.347Z,1018.16
2018-02-23T06:19:29.408Z,1018.13
2018-02-23T06:20:29.359Z,1018.13
2018-02-23T06:21:29.398Z,1018.14
2018-02-23T06:22:29.391Z,1018.15
2018-02-23T06:23:29.383Z,1018.18
2018-02-23T06:24:29.434Z,1018.18
2018-02-23T06:25:29.430Z,1018.15
2018-02-23T06:26:29.412Z,1018.18
2018-02-23T06:27:29.433Z,1018.16
2018-02-23T06:28:29.431Z,1018.17
2018-02-23T06:29:29.435Z,1018.19
2018-02-23T06:30:29.454Z,1018.21
2018-02-23T06:31:29.454Z,1018.17
2018-02-23T06:32:29.476Z,1018.23
2018-02-23T06:33:29.471Z,1018.21
2018-02-23T06:34:29.478Z,1018.20
2018-02-23T06:35:29.487Z,1018.20
2018-02-23T06:36:29.518Z,1018.23
2018-02-23T06:37:29.507Z,1018.22
2018-02-23T06:38:29.526Z,1018.26
2018-02-23T06:39:29.625Z,1018.23
2018-02-23T06:40:29.536Z,1018.26
2018-02-23T06:41:29.540Z,1018.26
2018-02-23T06:42:29.549Z,1018.26
2018-02-23T06:43:29.572Z,1018.31
2018-02-23T06:44:29.570Z,1018.33
2018-02-23T06:45:29.579Z,1018.34
2018-02-23T06:46:29.587Z,1018.36
2018-02-23T06:47:29.598Z,1018.38
2018-02-23T06:48:29.616Z,1018.42
2018-02-23T06:49:29.610Z,1018.36
2018-02-23T06:50:29.620Z,1018.40
2018-02-23T06:51:29.629Z,1018.42
2018-02-23T06:52:29.663Z,1018.36
2018-02-23T06:53:29.658Z,1018.41
2018-02-23T06:54:29.670Z,1018.41
2018-02-23T06:55:29.970Z,1018.45
2018-02-23T06:56:29.693Z,1018.45
2018-02-23T06:57:29.681Z,1018.49
2018-02-23T06:58:29.734Z,1018.50
2018-02-23T06:59:29.728Z,1018.48
2018-02-23T07:00:29.707Z,1018.46
2018-02-23T07:01:29.745Z,1018.49
2018-02-23T07:02:29.747Z,1018.50
2018-02-23T07:03:29.774Z,1018.52
2018-02-23T07:04:29.740Z,1018.48
2018-02-23T07:05:29.814Z,1018.53
2018-02-23T07:06:29.756Z,1018.54
2018-02-23T07:07:29.771Z,1018.54
2018-02-23T07:08:29.778Z,1018.56
2018-02-23T07:09:29.789Z,1018.60
2018-02-23T07:10:29.793Z,1018.57
2018-02-23T07:11:29.810Z,1018.55
2018-02-23T07:12:29.812Z,1018.55
2018-02-23T07:13:29.844Z,1018.53
2018-02-23T07:14:29.815Z,1018.55
2018-02-23T07:15:29.845Z,1018.55
2018-02-23T07:16:29.856Z,1018.56
2018-02-23T07:17:29.844Z,1018.58
2018-02-23T07:18:29.849Z,1018.56
2018-02-23T07:19:29.866Z,1018.58
2018-02-23T07:20:29.868Z,1018.57
2018-02-23T07:21:29.877Z,1018.52
2018-02-23T07:22:29.885Z,1018.58
2018-02-23T07:23:29.896Z,1018.59
2018-02-23T07:24:29.903Z,1018.60
2018-02-23T07:25:30.059Z,1018.60
2018-02-23T07:26:29.932Z,1018.60
2018-02-23T07:27:29.927Z,1018.58
2018-02-23T07:28:29.937Z,1018.55
2018-02-23T07:29:29.945Z,1018.61
2018-02-23T07:30:29.953Z,1018.52
2018-02-23T07:31:29.966Z,1018.57
2018-02-23T07:32:29.975Z,1018.53
2018-02-23T07:33:29.979Z,1018.54
2018-02-23T07:34:29.987Z,1018.54
2018-02-23T07:35:29.997Z,1018.54
2018-02-23T07:36:30.010Z,1018.61
2018-02-23T07:37:30.015Z,1018.61
2018-02-23T07:38:30.032Z,1018.62
2018-02-23T07:39:30.036Z,1018.58
2018-02-23T07:40:30.040Z,1018.61
2018-02-23T07:41:30.048Z,1018.60
2018-02-23T07:42:30.057Z,1018.67
2018-02-23T07:43:30.070Z,1018.62
2018-02-23T07:44:30.076Z,1018.65
2018-02-23T07:45:30.084Z,1018.65
2018-02-23T07:46:30.094Z,1018.68
2018-02-23T07:47:30.100Z,1018.66
2018-02-23T07:48:30.109Z,1018.60
2018-02-23T07:49:30.118Z,1018.59
2018-02-23T07:50:30.125Z,1018.66
2018-02-23T07:51:30.151Z,1018.63
2018-02-23T07:52:30.147Z,1018.68
2018-02-23T07:53:30.152Z,1018.60
2018-02-23T07:54:30.168Z,1018.64
2018-02-23T07:55:30.168Z,1018.65
2018-02-23T07:56:30.175Z,1018.67
2018-02-23T07:57:30.186Z,1018.66
2018-02-23T07:58:30.194Z,1018.71
2018-02-23T07:59:30.218Z,1018.70
2018-02-23T08:00:30.211Z,1018.66
2018-02-23T08:01:30.219Z,1018.73
2018-02-23T08:02:30.263Z,1018.74
2018-02-23T08:03:30.468Z,1018.71
2018-02-23T08:04:30.247Z,1018.69
2018-02-23T08:05:30.256Z,1018.71
2018-02-23T08:06:30.466Z,1018.72
2018-02-23T08:07:30.272Z,1018.74
2018-02-23T08:08:30.307Z,1018.68
2018-02-23T08:09:30.292Z,1018.71
2018-02-23T08:10:30.300Z,1018.73
2018-02-23T08:11:30.310Z,1018.74
2018-02-23T08:12:30.316Z,1018.72
2018-02-23T08:13:30.327Z,1018.78
2018-02-23T08:14:30.334Z,1018.75
2018-02-23T08:15:30.348Z,1018.80
2018-02-23T08:16:30.350Z,1018.80
2018-02-23T08:17:30.358Z,1018.81
2018-02-23T08:18:30.371Z,1018.77
2018-02-23T08:19:30.376Z,1018.77
2018-02-23T08:20:30.385Z,1018.79
2018-02-23T08:21:30.405Z,1018.81
2018-02-23T08:22:30.402Z,1018.76
2018-02-23T08:23:31.253Z,1018.87
2018-02-23T08:24:30.420Z,1018.78
2018-02-23T08:25:30.430Z,1018.77
2018-02-23T08:27:30.450Z,1018.79
2018-02-23T08:28:30.505Z,1018.82
2018-02-23T08:29:30.495Z,1018.83
2018-02-23T08:30:30.479Z,1018.78
2018-02-23T08:31:30.502Z,1018.82
2018-02-23T08:32:30.497Z,1018.83
2018-02-23T08:33:30.801Z,1018.82
2018-02-23T08:34:30.826Z,1018.76
2018-02-23T08:35:30.522Z,1018.86
2018-02-23T08:36:30.526Z,1018.85
2018-02-23T08:37:30.535Z,1018.86
2018-02-23T08:38:30.554Z,1018.89
2018-02-23T08:39:30.557Z,1018.93
2018-02-23T08:40:30.566Z,1018.92
2018-02-23T08:41:30.577Z,1018.94
2018-02-23T08:42:30.583Z,1018.96
2018-02-23T08:43:30.595Z,1018.89
2018-02-23T08:44:30.599Z,1018.96
2018-02-23T08:45:30.611Z,1018.98
2018-02-23T08:46:30.619Z,1018.97
2018-02-23T08:47:30.670Z,1018.97
2018-02-23T08:48:30.636Z,1018.95
2018-02-23T08:49:30.646Z,1018.98
2018-02-23T08:50:30.652Z,1018.93
2018-02-23T08:51:30.669Z,1019.02
2018-02-23T08:52:30.672Z,1018.92
2018-02-23T08:53:30.683Z,1019.00
2018-02-23T08:54:30.689Z,1018.98
2018-02-23T08:56:30.707Z,1019.03
2018-02-23T08:57:31.376Z,1019.06
2018-02-23T08:58:30.832Z,1019.05
2018-02-23T08:59:30.898Z,1019.07
2018-02-23T09:00:30.747Z,1019.11
2018-02-23T09:01:30.754Z,1019.09
2018-02-23T09:02:30.762Z,1019.12
2018-02-23T09:03:30.774Z,1019.08
2018-02-23T09:04:30.794Z,1019.13
2018-02-23T09:05:30.796Z,1019.11
2018-02-23T09:06:30.803Z,1019.11
2018-02-23T09:07:30.835Z,1019.12
2018-02-23T09:08:30.821Z,1019.10
2018-02-23T09:09:30.826Z,1019.10
2018-02-23T09:10:30.839Z,1019.09
2018-02-23T09:11:30.851Z,1019.06
2018-02-23T09:12:30.863Z,1019.02
2018-02-23T09:13:30.864Z,1019.04
2018-02-23T09:14:30.875Z,1019.06
2018-02-23T09:15:30.892Z,1019.06
2018-02-23T09:16:30.909Z,1019.02
2018-02-23T09:17:30.911Z,1019.05
2018-02-23T09:18:30.913Z,1019.09
2018-02-23T09:19:30.926Z,1019.05
2018-02-23T09:20:30.939Z,1019.09
2018-02-23T09:21:30.997Z,1019.06
2018-02-23T09:22:31.035Z,1019.09
2018-02-23T09:23:30.984Z,1019.08
2018-02-23T09:24:30.976Z,1019.04
2018-02-23T09:25:30.986Z,1019.00
2018-02-23T09:26:30.990Z,1019.06
2018-02-23T09:27:31.021Z,1019.05
2018-02-23T09:28:31.009Z,1019.05
2018-02-23T09:29:31.021Z,1019.09
2018-02-23T09:30:31.034Z,1019.12
2018-02-23T09:31:31.076Z,1019.01
2018-02-23T09:32:31.515Z,1019.11
2018-02-23T09:33:31.061Z,1019.10
2018-02-23T09:34:31.066Z,1019.08
2018-02-23T09:35:31.076Z,1019.02
2018-02-23T09:36:31.084Z,1019.01
2018-02-23T09:37:31.101Z,1019.01
2018-02-23T09:38:31.105Z,1019.03
2018-02-23T09:39:31.117Z,1019.02
2018-02-23T09:40:31.161Z,1019.01
2018-02-23T09:41:31.136Z,1018.99
2018-02-23T09:42:31.140Z,1019.00
2018-02-23T09:43:31.153Z,1018.98
2018-02-23T09:44:31.165Z,1018.96
2018-02-23T09:45:31.171Z,1019.00
2018-02-23T09:46:31.180Z,1018.97
2018-02-23T09:47:31.489Z,1019.01
2018-02-23T09:48:32.091Z,1018.98
2018-02-23T09:49:31.567Z,1019.00
2018-02-23T09:50:31.212Z,1018.93
2018-02-23T09:51:31.228Z,1018.94
2018-02-23T09:52:31.250Z,1018.95
2018-02-23T09:53:31.240Z,1018.90
2018-02-23T09:54:31.254Z,1018.95
2018-02-23T09:55:31.274Z,1018.94
2018-02-23T09:56:31.286Z,1018.97
2018-02-23T09:57:31.283Z,1018.91
2018-02-23T09:58:31.288Z,1018.92
2018-02-23T09:59:31.338Z,1018.95
2018-02-23T10:00:31.324Z,1018.93
2018-02-23T10:01:31.317Z,1018.95
2018-02-23T10:02:31.325Z,1018.98
2018-02-23T10:03:31.338Z,1019.00
2018-02-23T10:04:31.350Z,1018.96
2018-02-23T10:05:31.382Z,1018.93
2018-02-23T10:06:31.361Z,1018.96
2018-02-23T10:07:31.385Z,1019.01
2018-02-23T10:08:31.379Z,1018.95
2018-02-23T10:09:31.398Z,1019.01
2018-02-23T10:10:31.425Z,1018.96
2018-02-23T10:11:31.410Z,1019.00
2018-02-23T10:12:31.415Z,1018.94
2018-02-23T10:13:31.428Z,1018.90
2018-02-23T10:14:31.485Z,1018.93
2018-02-23T10:15:31.456Z,1018.99
2018-02-23T10:16:31.696Z,1018.94
2018-02-23T10:17:32.185Z,1018.89
2018-02-23T10:18:32.289Z,1018.90
2018-02-23T10:19:32.174Z,1018.92
2018-02-23T10:20:31.558Z,1018.89
2018-02-23T10:21:31.500Z,1018.90
2018-02-23T10:22:31.514Z,1018.89
2018-02-23T10:23:31.531Z,1018.86
2018-02-23T10:24:31.549Z,1018.84
2018-02-23T10:25:31.538Z,1018.83
2018-02-23T10:26:31.568Z,1018.87
2018-02-23T10:27:31.558Z,1018.84
2018-02-23T10:28:31.581Z,1018.83
2018-02-23T10:29:31.623Z,1018.84
2018-02-23T10:30:31.595Z,1018.82
2018-02-23T10:31:31.611Z,1018.81
2018-02-23T10:34:31.619Z,1018.81
2018-02-23T10:35:31.630Z,1018.75
2018-02-23T10:36:31.641Z,1018.70
2018-02-23T10:37:31.670Z,1018.66
2018-02-23T10:38:31.663Z,1018.67
2018-02-23T10:39:31.675Z,1018.67
2018-02-23T10:40:31.681Z,1018.68
2018-02-23T10:41:31.695Z,1018.64
2018-02-23T10:42:31.703Z,1018.65
2018-02-23T10:43:31.719Z,1018.66
2018-02-23T10:44:31.720Z,1018.62
2018-02-23T10:45:31.734Z,1018.63
2018-02-23T10:46:31.743Z,1018.65
2018-02-23T10:47:31.750Z,1018.68
2018-02-23T10:48:31.759Z,1018.67
2018-02-23T10:49:31.773Z,1018.60
2018-02-23T10:50:31.779Z,1018.62
2018-02-23T10:51:31.795Z,1018.65
2018-02-23T10:52:31.799Z,1018.64
2018-02-23T10:53:31.814Z,1018.62
2018-02-23T10:55:31.955Z,1018.59
2018-02-23T10:56:31.836Z,1018.59
2018-02-23T10:57:31.847Z,1018.54
2018-02-23T10:58:31.856Z,1018.57
2018-02-23T10:59:31.867Z,1018.52
2018-02-23T11:00:31.889Z,1018.51
2018-02-23T11:01:31.888Z,1018.51
2018-02-23T11:02:32.034Z,1018.53
2018-02-23T11:04:32.332Z,1018.51
2018-02-23T11:05:31.939Z,1018.46
2018-02-23T11:06:31.937Z,1018.49
2018-02-23T11:07:31.950Z,1018.50
2018-02-23T11:08:31.956Z,1018.48
2018-02-23T11:09:31.970Z,1018.51
2018-02-23T11:10:31.975Z,1018.33
2018-02-23T11:11:31.985Z,1018.39
2018-02-23T11:12:32.039Z,1018.42
2018-02-23T11:13:32.107Z,1018.36
2018-02-23T11:14:32.020Z,1018.30
2018-02-23T11:15:32.029Z,1018.43
2018-02-23T11:16:32.036Z,1018.41
2018-02-23T11:17:32.046Z,1018.42
2018-02-23T11:18:32.060Z,1018.43
2018-02-23T11:19:32.065Z,1018.39
2018-02-23T11:20:32.079Z,1018.38
2018-02-23T11:21:32.136Z,1018.38
2018-02-23T11:22:32.111Z,1018.33
2018-02-23T11:23:32.105Z,1018.37
2018-02-23T11:24:32.117Z,1018.33
2018-02-23T11:25:32.124Z,1018.29
2018-02-23T11:26:32.134Z,1018.30
2018-02-23T11:27:32.151Z,1018.33
2018-02-23T11:28:32.160Z,1018.31
2018-02-23T11:29:32.186Z,1018.44
2018-02-23T11:30:32.235Z,1018.38
2018-02-23T11:31:32.188Z,1018.36
2018-02-23T11:32:32.204Z,1018.43
2018-02-23T11:33:32.262Z,1018.42
2018-02-23T11:34:32.313Z,1018.42
2018-02-23T11:35:32.668Z,1018.45
2018-02-23T11:36:32.236Z,1018.42
2018-02-23T11:37:32.247Z,1018.44
2018-02-23T11:38:32.277Z,1018.41
2018-02-23T11:39:32.265Z,1018.43
2018-02-23T11:40:32.280Z,1018.40
2018-02-23T11:41:32.288Z,1018.43
2018-02-23T11:42:32.302Z,1018.40
2018-02-23T11:43:32.310Z,1018.42
2018-02-23T11:44:32.317Z,1018.41
2018-02-23T11:45:32.336Z,1018.41
2018-02-23T11:46:32.338Z,1018.39
2018-02-23T11:47:32.548Z,1018.40
2018-02-23T11:48:32.441Z,1018.41
2018-02-23T11:49:32.379Z,1018.33
2018-02-23T11:50:32.379Z,1018.35
2018-02-23T11:51:32.387Z,1018.42
2018-02-23T11:52:32.397Z,1018.35
2018-02-23T11:53:32.405Z,1018.36
2018-02-23T11:54:32.416Z,1018.31
2018-02-23T11:55:32.429Z,1018.36
2018-02-23T11:56:32.440Z,1018.35
2018-02-23T11:57:32.562Z,1018.35
2018-02-23T11:58:32.458Z,1018.28
2018-02-23T11:59:32.472Z,1018.34
2018-02-23T12:00:32.483Z,1018.27
2018-02-23T12:01:32.487Z,1018.27
2018-02-23T12:02:32.621Z,1018.23
2018-02-23T12:03:32.530Z,1018.22
2018-02-23T12:04:32.706Z,1018.26
2018-02-23T12:05:32.529Z,1018.17
2018-02-23T12:06:32.538Z,1018.21
2018-02-23T12:07:32.550Z,1018.24
2018-02-23T12:08:32.564Z,1018.24
2018-02-23T12:09:32.571Z,1018.21
2018-02-23T12:10:32.583Z,1018.20
2018-02-23T12:11:32.605Z,1018.22